createdAt,value
2023-03-26T00:01:21.372Z,99668.72
2023-03-26T00:03:53.651Z,99673.19
2023-03-26T00:06:23.019Z,99677.88
2023-03-26T00:08:50.864Z,99671.94
2023-03-26T00:11:20.042Z,99681.72
2023-03-26T00:13:47.685Z,99674.19
2023-03-26T00:16:17.238Z,99679.72
2023-03-26T00:18:44.670Z,99688.75
2023-03-26T00:21:14.758Z,99689.22
2023-03-26T00:23:42.129Z,99685.03
2023-03-26T00:26:10.779Z,99688.19
2023-03-26T00:28:40.558Z,99692.63
2023-03-26T00:31:09.926Z,99692.44
2023-03-26T00:33:38.565Z,99692.34
2023-03-26T00:36:10.038Z,99692.53
2023-03-26T00:38:39.284Z,99688.72
2023-03-26T00:41:18.002Z,99692.56
2023-03-26T00:43:49.301Z,99683.28
2023-03-26T00:46:18.015Z,99688.28
2023-03-26T00:48:46.234Z,99687.34
2023-03-26T00:51:18.015Z,99695.75
2023-03-26T00:53:46.444Z,99687.53
2023-03-26T00:56:14.272Z,99683.91
2023-03-26T00:58:41.019Z,99680.03
2023-03-26T01:01:17.222Z,99685.38
2023-03-26T01:03:57.108Z,99687.53
2023-03-26T01:06:36.062Z,99695.97
2023-03-26T01:09:12.736Z,99697.75
2023-03-26T01:11:39.485Z,99699.31
2023-03-26T01:14:11.077Z,99696.19
2023-03-26T01:16:45.438Z,99702.66
2023-03-26T01:19:30.004Z,99710.47
2023-03-26T01:21:58.338Z,99707.22
2023-03-26T01:24:24.991Z,99702.03
2023-03-26T01:27:17.920Z,99704.00
2023-03-26T01:30:05.207Z,99704.63
2023-03-26T01:32:48.713Z,99704.75
2023-03-26T01:35:30.733Z,99691.41
2023-03-26T01:38:11.610Z,99691.59
2023-03-26T01:41:04.888Z,99698.19
2023-03-26T01:43:38.990Z,99702.44
2023-03-26T01:46:09.341Z,99691.94
2023-03-26T01:48:39.506Z,99707.34
2023-03-26T01:51:07.048Z,99694.81
2023-03-26T01:53:39.158Z,99701.72
2023-03-26T01:56:10.943Z,99713.78
2023-03-26T01:58:41.751Z,99704.94
2023-03-26T02:01:24.465Z,99702.22
2023-03-26T02:03:56.297Z,99705.88
2023-03-26T02:06:34.470Z,99699.44
2023-03-26T02:09:08.026Z,99702.13
2023-03-26T02:11:37.708Z,99721.28
2023-03-26T02:14:06.132Z,99721.06
2023-03-26T02:16:33.105Z,99707.44
2023-03-26T02:19:00.389Z,99706.91
2023-03-26T02:21:28.583Z,99711.06
2023-03-26T02:24:02.865Z,99718.13
2023-03-26T02:26:31.861Z,99708.75
2023-03-26T02:28:59.003Z,99716.34
2023-03-26T02:31:26.443Z,99712.69
2023-03-26T02:33:56.687Z,99713.72
2023-03-26T02:38:55.696Z,99718.13
2023-03-26T02:41:22.554Z,99729.16
2023-03-26T02:43:49.171Z,99712.59
2023-03-26T02:46:16.127Z,99724.97
2023-03-26T02:48:44.049Z,99725.91
2023-03-26T02:51:11.008Z,99722.25
2023-03-26T02:53:39.506Z,99725.31
2023-03-26T02:56:06.945Z,99724.06
2023-03-26T02:58:33.727Z,99721.88
2023-03-26T03:01:03.307Z,99729.47
2023-03-26T03:03:31.203Z,99731.66
2023-03-26T03:05:58.272Z,99735.44
2023-03-26T03:08:28.240Z,99733.13
2023-03-26T03:11:00.934Z,99737.41
2023-03-26T03:13:28.730Z,99729.47
2023-03-26T03:15:56.288Z,99733.22
2023-03-26T03:18:23.259Z,99735.44
2023-03-26T03:20:50.360Z,99737.69
2023-03-26T03:23:17.417Z,99740.75
2023-03-26T03:25:44.144Z,99741.66
2023-03-26T03:28:11.253Z,99737.69
2023-03-26T03:30:38.179Z,99725.59
2023-03-26T03:33:06.196Z,99736.53
2023-03-26T03:35:33.729Z,99733.84
2023-03-26T03:38:01.029Z,99739.59
2023-03-26T03:40:28.016Z,99743.44
2023-03-26T03:42:54.732Z,99744.66
2023-03-26T03:45:21.487Z,99748.00
2023-03-26T03:47:48.468Z,99747.19
2023-03-26T03:50:15.497Z,99739.56
2023-03-26T03:52:42.125Z,99738.63
2023-03-26T03:55:10.658Z,99745.06
2023-03-26T03:57:37.368Z,99750.81
2023-03-26T04:00:06.844Z,99752.50
2023-03-26T04:02:35.163Z,99753.22
2023-03-26T04:05:02.968Z,99749.78
2023-03-26T04:07:33.350Z,99753.72
2023-03-26T04:10:02.045Z,99757.88
2023-03-26T04:12:30.000Z,99749.25
2023-03-26T04:14:56.766Z,99749.94
2023-03-26T04:17:23.446Z,99751.16
2023-03-26T04:19:53.112Z,99751.38
2023-03-26T04:22:19.886Z,99752.84
2023-03-26T04:24:48.863Z,99754.28
2023-03-26T04:27:19.035Z,99763.50
2023-03-26T04:29:49.951Z,99756.94
2023-03-26T04:32:26.762Z,99763.59
2023-03-26T04:34:53.740Z,99755.38
2023-03-26T04:37:27.515Z,99753.50
2023-03-26T04:39:55.305Z,99750.16
2023-03-26T04:42:22.516Z,99755.28
2023-03-26T04:44:52.267Z,99756.63
2023-03-26T04:47:19.203Z,99767.13
2023-03-26T04:49:48.830Z,99762.44
2023-03-26T04:52:16.084Z,99761.00
2023-03-26T04:54:46.356Z,99754.53
2023-03-26T04:57:22.434Z,99757.34
2023-03-26T04:59:50.187Z,99765.88
2023-03-26T05:02:18.154Z,99754.72
2023-03-26T05:04:49.986Z,99754.53
2023-03-26T05:07:25.172Z,99761.00
2023-03-26T05:09:51.973Z,99746.41
2023-03-26T05:12:18.793Z,99746.75
2023-03-26T05:14:45.408Z,99746.75
2023-03-26T05:17:15.084Z,99752.69
2023-03-26T05:19:41.798Z,99753.91
2023-03-26T05:22:08.456Z,99754.72
2023-03-26T05:24:35.525Z,99765.25
2023-03-26T05:27:02.153Z,99754.72
2023-03-26T05:29:28.827Z,99751.31
2023-03-26T05:31:55.576Z,99759.88
2023-03-26T05:34:26.459Z,99754.16
2023-03-26T05:36:53.197Z,99756.78
2023-03-26T05:39:22.807Z,99765.56
2023-03-26T05:41:50.201Z,99755.47
2023-03-26T05:44:19.401Z,99761.31
2023-03-26T05:46:46.132Z,99766.25
2023-03-26T05:49:12.804Z,99760.81
2023-03-26T05:51:39.421Z,99768.44
2023-03-26T05:54:06.030Z,99762.47
2023-03-26T05:56:32.714Z,99761.47
2023-03-26T05:58:59.448Z,99761.47
2023-03-26T06:01:26.125Z,99767.09
2023-03-26T06:03:52.791Z,99767.72
2023-03-26T06:06:20.904Z,99768.34
2023-03-26T06:09:01.860Z,99771.25
2023-03-26T06:11:29.909Z,99767.00
2023-03-26T06:13:56.567Z,99773.22
2023-03-26T06:16:27.333Z,99777.00
2023-03-26T06:18:56.727Z,99775.63
2023-03-26T06:21:25.661Z,99784.72
2023-03-26T06:23:53.084Z,99786.78
2023-03-26T06:26:20.775Z,99781.78
2023-03-26T06:28:47.875Z,99783.69
2023-03-26T06:31:14.550Z,99773.13
2023-03-26T06:33:41.201Z,99786.38
2023-03-26T06:36:08.268Z,99791.28
2023-03-26T06:38:34.892Z,99789.81
2023-03-26T06:41:06.293Z,99789.69
2023-03-26T06:43:33.946Z,99783.03
2023-03-26T06:46:04.369Z,99796.69
2023-03-26T06:48:31.836Z,99798.03
2023-03-26T06:50:58.461Z,99791.28
2023-03-26T06:53:25.286Z,99792.91
2023-03-26T06:55:53.847Z,99804.38
2023-03-26T06:58:21.020Z,99796.16
2023-03-26T07:00:48.906Z,99805.41
2023-03-26T07:03:17.368Z,99803.34
2023-03-26T07:05:44.097Z,99802.47
2023-03-26T07:08:10.842Z,99800.19
2023-03-26T07:10:37.825Z,99796.44
2023-03-26T07:13:04.522Z,99800.50
2023-03-26T07:15:31.128Z,99792.53
2023-03-26T07:17:58.027Z,99790.13
2023-03-26T07:20:25.608Z,99799.28
2023-03-26T07:22:53.179Z,99796.56
2023-03-26T07:25:20.573Z,99795.69
2023-03-26T07:28:12.352Z,99796.75
2023-03-26T07:31:08.479Z,99805.63
2023-03-26T07:33:49.415Z,99811.38
2023-03-26T07:36:43.564Z,99804.25
2023-03-26T07:39:19.322Z,99801.06
2023-03-26T07:42:10.354Z,99803.34
2023-03-26T07:44:46.049Z,99800.09
2023-03-26T07:47:26.071Z,99801.56
2023-03-26T07:49:54.802Z,99800.97
2023-03-26T07:52:22.006Z,99802.50
2023-03-26T07:54:49.333Z,99802.28
2023-03-26T07:57:37.033Z,99799.84
2023-03-26T08:00:12.300Z,99805.97
2023-03-26T08:03:12.628Z,99799.28
2023-03-26T08:05:52.403Z,99799.06
2023-03-26T08:08:34.806Z,99802.44
2023-03-26T08:11:39.011Z,99802.03
2023-03-26T08:14:27.755Z,99792.94
2023-03-26T08:16:59.304Z,99793.78
2023-03-26T08:19:49.409Z,99790.47
2023-03-26T08:22:27.384Z,99789.28
2023-03-26T08:25:01.293Z,99795.53
2023-03-26T08:27:41.301Z,99796.38
2023-03-26T08:30:08.427Z,99785.31
2023-03-26T08:32:35.688Z,99774.78
2023-03-26T08:35:04.094Z,99791.00
2023-03-26T08:37:30.691Z,99797.41
2023-03-26T08:39:57.541Z,99788.59
2023-03-26T08:42:57.390Z,99782.03
2023-03-26T08:45:34.120Z,99791.19
2023-03-26T08:48:22.400Z,99784.53
2023-03-26T08:50:55.009Z,99777.59
2023-03-26T08:53:46.011Z,99778.72
2023-03-26T08:56:37.054Z,99778.78
2023-03-26T08:59:12.917Z,99782.47
2023-03-26T09:01:57.821Z,99781.03
2023-03-26T09:04:46.987Z,99777.09
2023-03-26T09:07:32.101Z,99776.22
2023-03-26T09:10:42.280Z,99772.66
2023-03-26T09:13:39.820Z,99773.34
2023-03-26T09:16:27.879Z,99774.78
2023-03-26T09:19:06.855Z,99779.66
2023-03-26T09:21:58.152Z,99772.06
2023-03-26T09:25:02.027Z,99777.03
2023-03-26T09:27:59.074Z,99763.47
2023-03-26T09:30:43.877Z,99759.34
2023-03-26T09:33:11.700Z,99763.38
2023-03-26T09:36:17.090Z,99763.16
2023-03-26T09:39:07.497Z,99754.09
2023-03-26T09:42:06.852Z,99767.81
2023-03-26T09:44:59.889Z,99769.75
2023-03-26T09:47:50.021Z,99770.06
2023-03-26T09:50:25.963Z,99767.72
2023-03-26T09:53:11.028Z,99764.28
2023-03-26T09:55:48.666Z,99758.31
2023-03-26T09:58:24.249Z,99768.63
2023-03-26T10:01:05.780Z,99762.13
2023-03-26T10:03:54.767Z,99763.81
2023-03-26T10:06:44.884Z,99756.41
2023-03-26T10:09:42.142Z,99756.09
2023-03-26T10:12:08.744Z,99753.66
2023-03-26T10:14:48.472Z,99762.66
2023-03-26T10:17:34.455Z,99756.09
2023-03-26T10:20:29.081Z,99764.75
2023-03-26T10:23:35.850Z,99750.56
2023-03-26T10:26:33.478Z,99750.78
2023-03-26T10:29:23.330Z,99754.41
2023-03-26T10:32:09.969Z,99757.59
2023-03-26T10:34:48.361Z,99750.47
2023-03-26T10:37:48.960Z,99759.09
2023-03-26T10:40:42.826Z,99752.53
2023-03-26T10:43:37.029Z,99753.00
2023-03-26T10:46:36.563Z,99750.28
2023-03-26T10:49:21.796Z,99744.16
2023-03-26T10:51:55.026Z,99750.28
2023-03-26T10:54:56.341Z,99750.84
2023-03-26T10:57:51.365Z,99748.03
2023-03-26T11:00:25.020Z,99734.59
2023-03-26T11:03:14.598Z,99745.69
2023-03-26T11:06:06.125Z,99744.34
2023-03-26T11:09:14.591Z,99734.50
2023-03-26T11:12:25.713Z,99741.53
2023-03-26T11:15:37.600Z,99730.44
2023-03-26T11:18:26.165Z,99731.66
2023-03-26T11:21:26.634Z,99733.22
2023-03-26T11:24:14.875Z,99727.00
2023-03-26T11:27:15.556Z,99725.44
2023-03-26T11:29:43.095Z,99736.78
2023-03-26T11:32:14.074Z,99736.38
2023-03-26T11:34:49.352Z,99732.16
2023-03-26T11:37:24.147Z,99739.28
2023-03-26T11:39:56.839Z,99723.06
2023-03-26T11:42:25.667Z,99730.34
2023-03-26T11:44:58.773Z,99716.16
2023-03-26T11:47:35.373Z,99713.25
2023-03-26T11:50:03.523Z,99722.78
2023-03-26T11:52:30.569Z,99724.31
2023-03-26T11:54:58.658Z,99720.84
2023-03-26T11:57:35.293Z,99712.56
2023-03-26T12:00:16.254Z,99710.31
2023-03-26T12:02:43.806Z,99707.72
2023-03-26T12:05:18.561Z,99709.81
2023-03-26T12:07:57.446Z,99698.72
2023-03-26T12:10:40.044Z,99700.31
2023-03-26T12:13:23.031Z,99700.31
2023-03-26T12:15:49.665Z,99691.50
2023-03-26T12:18:27.503Z,99684.53
2023-03-26T12:21:10.286Z,99682.06
2023-03-26T12:23:43.662Z,99690.97
2023-03-26T12:26:31.788Z,99681.44
2023-03-26T12:29:06.861Z,99684.06
2023-03-26T12:32:01.525Z,99678.78
2023-03-26T12:34:37.110Z,99678.94
2023-03-26T12:37:06.132Z,99680.09
2023-03-26T12:40:07.522Z,99679.16
2023-03-26T12:44:47.212Z,99676.09
2023-03-26T12:45:24.239Z,99679.56
2023-03-26T12:47:59.507Z,99684.56
2023-03-26T12:51:01.901Z,99682.78
2023-03-26T12:54:03.158Z,99682.06
2023-03-26T12:57:20.525Z,99680.41
2023-03-26T13:00:25.282Z,99679.16
2023-03-26T13:02:54.676Z,99675.34
2023-03-26T13:05:34.204Z,99680.44
2023-03-26T13:08:19.329Z,99675.97
2023-03-26T13:11:10.854Z,99667.38
2023-03-26T13:13:37.606Z,99667.38
2023-03-26T13:16:14.089Z,99664.69
2023-03-26T13:18:43.641Z,99671.06
2023-03-26T13:21:31.014Z,99677.69
2023-03-26T13:24:27.938Z,99674.94
2023-03-26T13:27:05.767Z,99675.63
2023-03-26T13:30:01.051Z,99665.81
2023-03-26T13:33:01.770Z,99670.94
2023-03-26T13:35:49.504Z,99664.00
2023-03-26T13:38:29.330Z,99661.69
2023-03-26T13:41:20.328Z,99665.19
2023-03-26T13:44:09.926Z,99664.59
2023-03-26T13:47:11.021Z,99654.69
2023-03-26T13:49:44.131Z,99646.19
2023-03-26T13:52:17.538Z,99660.34
2023-03-26T13:54:54.418Z,99652.75
2023-03-26T13:57:43.186Z,99643.84
2023-03-26T14:00:57.941Z,99657.94
2023-03-26T14:03:24.767Z,99641.47
2023-03-26T14:05:55.965Z,99645.81
2023-03-26T14:08:32.733Z,99643.06
2023-03-26T14:11:10.887Z,99653.66
2023-03-26T14:13:51.539Z,99643.97
2023-03-26T14:16:27.269Z,99640.69
2023-03-26T14:19:12.421Z,99642.75
2023-03-26T14:22:11.293Z,99639.81
2023-03-26T14:24:59.020Z,99639.44
2023-03-26T14:27:40.396Z,99636.41
2023-03-26T14:30:16.185Z,99636.81
2023-03-26T14:33:07.639Z,99634.16
2023-03-26T14:35:43.057Z,99626.59
2023-03-26T14:38:56.890Z,99630.31
2023-03-26T14:41:29.634Z,99634.47
2023-03-26T14:44:01.835Z,99636.22
2023-03-26T14:46:28.341Z,99636.81
2023-03-26T14:49:27.433Z,99630.16
2023-03-26T14:52:18.360Z,99623.81
2023-03-26T14:54:48.659Z,99614.13
2023-03-26T14:57:24.097Z,99620.22
2023-03-26T15:00:15.683Z,99622.16
2023-03-26T15:02:53.575Z,99618.84
2023-03-26T15:05:27.189Z,99611.53
2023-03-26T15:08:17.183Z,99616.50
2023-03-26T15:11:11.047Z,99604.59
2023-03-26T15:13:50.510Z,99605.03
2023-03-26T15:16:52.464Z,99602.13
2023-03-26T15:19:37.041Z,99609.88
2023-03-26T15:22:40.924Z,99604.06
2023-03-26T15:25:45.371Z,99602.41
2023-03-26T15:28:26.066Z,99601.16
2023-03-26T15:31:31.799Z,99603.94
2023-03-26T15:34:31.145Z,99603.59
2023-03-26T15:37:34.985Z,99609.69
2023-03-26T15:40:26.074Z,99605.97
2023-03-26T15:43:01.967Z,99604.59
2023-03-26T15:45:35.924Z,99611.97
2023-03-26T15:48:11.078Z,99610.56
2023-03-26T15:50:56.318Z,99614.78
2023-03-26T15:53:43.601Z,99613.22
2023-03-26T15:56:37.834Z,99619.09
2023-03-26T15:59:23.490Z,99615.66
2023-03-26T16:02:22.818Z,99613.50
2023-03-26T16:05:21.363Z,99611.88
2023-03-26T16:07:53.085Z,99615.25
2023-03-26T16:10:51.320Z,99615.03
2023-03-26T16:13:38.080Z,99614.91
2023-03-26T16:16:04.741Z,99617.72
2023-03-26T16:18:33.004Z,99613.63
2023-03-26T16:21:32.800Z,99606.59
2023-03-26T16:24:02.801Z,99612.53
2023-03-26T16:26:45.492Z,99614.69
2023-03-26T16:29:15.753Z,99614.81
2023-03-26T16:32:10.326Z,99610.75
2023-03-26T16:34:42.052Z,99610.41
2023-03-26T16:37:36.818Z,99616.94
2023-03-26T16:40:20.699Z,99612.47
2023-03-26T16:43:09.274Z,99614.16
2023-03-26T16:46:02.499Z,99620.84
2023-03-26T16:48:34.921Z,99619.41
2023-03-26T16:51:16.988Z,99623.72
2023-03-26T16:53:52.671Z,99629.97
2023-03-26T16:56:31.119Z,99628.19
2023-03-26T16:59:43.028Z,99628.22
2023-03-26T17:02:41.772Z,99634.66
2023-03-26T17:05:43.484Z,99635.63
2023-03-26T17:08:16.465Z,99641.44
2023-03-26T17:11:07.973Z,99638.72
2023-03-26T17:13:55.171Z,99645.81
2023-03-26T17:16:32.459Z,99646.78
2023-03-26T17:19:14.108Z,99643.72
2023-03-26T17:22:31.984Z,99655.09
2023-03-26T17:25:04.967Z,99653.06
2023-03-26T17:28:07.481Z,99658.22
2023-03-26T17:30:52.925Z,99655.38
2023-03-26T17:33:26.833Z,99652.13
2023-03-26T17:36:21.348Z,99655.78
2023-03-26T17:38:47.999Z,99653.59
2023-03-26T17:41:55.469Z,99656.91
2023-03-26T17:44:42.302Z,99659.69
2023-03-26T17:47:20.092Z,99655.84
2023-03-26T17:49:51.154Z,99658.56
2023-03-26T17:52:23.060Z,99664.13
2023-03-26T17:54:52.590Z,99661.13
2023-03-26T17:57:22.239Z,99665.06
2023-03-26T17:59:51.226Z,99666.06
2023-03-26T18:02:22.467Z,99666.06
2023-03-26T18:04:53.628Z,99664.63
2023-03-26T18:07:29.463Z,99667.88
2023-03-26T18:10:12.967Z,99662.69
2023-03-26T18:13:01.998Z,99664.13
2023-03-26T18:16:05.547Z,99666.69
2023-03-26T18:18:35.351Z,99668.78
2023-03-26T18:21:07.180Z,99677.81
2023-03-26T18:23:41.270Z,99679.59
2023-03-26T18:26:23.465Z,99685.69
2023-03-26T18:28:53.315Z,99676.78
2023-03-26T18:31:26.882Z,99678.97
2023-03-26T18:33:59.385Z,99680.53
2023-03-26T18:36:30.532Z,99671.81
2023-03-26T18:39:00.891Z,99678.41
2023-03-26T18:41:31.228Z,99677.44
2023-03-26T18:44:03.005Z,99678.56
2023-03-26T18:46:30.014Z,99687.97
2023-03-26T18:48:58.751Z,99683.78
2023-03-26T18:51:27.323Z,99686.72
2023-03-26T18:54:04.873Z,99683.41
2023-03-26T18:56:31.909Z,99685.28
2023-03-26T18:59:02.536Z,99683.53
2023-03-26T19:01:32.540Z,99680.41
2023-03-26T19:04:04.046Z,99680.63
2023-03-26T19:06:36.238Z,99689.59
2023-03-26T19:09:23.810Z,99684.41
2023-03-26T19:11:58.865Z,99686.59
2023-03-26T19:14:27.093Z,99696.59
2023-03-26T19:17:01.272Z,99697.31
2023-03-26T19:19:33.779Z,99700.44
2023-03-26T19:22:00.398Z,99705.22
2023-03-26T19:24:27.559Z,99711.50
2023-03-26T19:26:54.297Z,99705.25
2023-03-26T19:29:33.456Z,99709.31
2023-03-26T19:32:18.453Z,99704.00
2023-03-26T19:34:47.134Z,99710.44
2023-03-26T19:37:32.406Z,99716.00
2023-03-26T19:40:14.258Z,99713.72
2023-03-26T19:42:44.743Z,99716.78
2023-03-26T19:45:23.392Z,99711.84
2023-03-26T19:48:00.400Z,99722.84
2023-03-26T19:50:36.906Z,99718.09
2023-03-26T19:53:24.246Z,99719.38
2023-03-26T19:56:18.823Z,99717.91
2023-03-26T19:58:45.856Z,99717.34
2023-03-26T20:01:33.550Z,99727.47
2023-03-26T20:04:05.209Z,99717.53
2023-03-26T20:06:43.069Z,99725.09
2023-03-26T20:09:12.229Z,99736.56
2023-03-26T20:11:39.924Z,99731.38
2023-03-26T20:14:15.698Z,99725.13
2023-03-26T20:16:45.346Z,99730.94
2023-03-26T20:19:14.340Z,99735.44
2023-03-26T20:21:41.718Z,99736.81
2023-03-26T20:24:15.083Z,99749.41
2023-03-26T20:26:42.632Z,99748.78
2023-03-26T20:29:10.198Z,99749.06
2023-03-26T20:31:37.621Z,99748.25
2023-03-26T20:34:07.417Z,99762.09
2023-03-26T20:36:35.609Z,99755.72
2023-03-26T20:39:07.934Z,99760.50
2023-03-26T20:41:36.053Z,99762.88
2023-03-26T20:44:04.950Z,99773.56
2023-03-26T20:46:33.200Z,99763.06
2023-03-26T20:49:00.193Z,99772.97
2023-03-26T20:51:28.485Z,99778.16
2023-03-26T20:53:55.811Z,99794.00
2023-03-26T20:56:22.746Z,99776.53
2023-03-26T20:58:54.812Z,99776.09
2023-03-26T21:01:27.856Z,99783.78
2023-03-26T21:03:54.647Z,99783.59
2023-03-26T21:06:21.452Z,99785.22
2023-03-26T21:08:48.294Z,99790.22
2023-03-26T21:11:15.622Z,99792.19
2023-03-26T21:14:02.000Z,99788.22
2023-03-26T21:16:29.958Z,99796.88
2023-03-26T21:18:57.456Z,99797.75
2023-03-26T21:21:47.648Z,99799.72
2023-03-26T21:24:59.603Z,99803.81
2023-03-26T21:27:39.335Z,99810.13
2023-03-26T21:30:16.844Z,99811.09
2023-03-26T21:32:44.972Z,99817.50
2023-03-26T21:35:16.343Z,99811.56
2023-03-26T21:37:45.701Z,99809.56
2023-03-26T21:40:16.733Z,99819.75
2023-03-26T21:42:47.333Z,99812.53
2023-03-26T21:45:14.668Z,99817.09
2023-03-26T21:47:43.164Z,99813.19
2023-03-26T21:50:13.500Z,99807.34
2023-03-26T21:52:47.219Z,99819.69
2023-03-26T21:55:19.085Z,99817.94
2023-03-26T21:58:13.281Z,99825.38
2023-03-26T22:00:54.123Z,99828.22
2023-03-26T22:03:30.337Z,99825.47
2023-03-26T22:06:12.724Z,99821.09
2023-03-26T22:08:41.399Z,99829.06
2023-03-26T22:11:11.363Z,99826.59
2023-03-26T22:13:38.922Z,99828.13
2023-03-26T22:16:07.421Z,99826.19
2023-03-26T22:18:34.160Z,99833.69
2023-03-26T22:21:01.607Z,99831.00
2023-03-26T22:23:34.369Z,99834.72
2023-03-26T22:26:01.117Z,99836.34
2023-03-26T22:28:27.742Z,99832.94
2023-03-26T22:30:54.650Z,99834.47
2023-03-26T22:33:21.782Z,99836.25
2023-03-26T22:35:48.472Z,99847.38
2023-03-26T22:38:17.059Z,99843.84
2023-03-26T22:40:43.930Z,99839.84
2023-03-26T22:43:10.553Z,99843.47
2023-03-26T22:45:37.757Z,99847.66
2023-03-26T22:48:04.757Z,99852.88
2023-03-26T22:50:32.392Z,99851.06
2023-03-26T22:52:59.049Z,99854.41
2023-03-26T22:55:28.731Z,99863.91
2023-03-26T22:57:56.917Z,99856.41
2023-03-26T23:00:23.954Z,99846.44
2023-03-26T23:02:50.617Z,99857.66
2023-03-26T23:05:18.022Z,99861.00
2023-03-26T23:07:46.130Z,99858.28
2023-03-26T23:10:13.258Z,99859.25
2023-03-26T23:12:40.334Z,99866.00
2023-03-26T23:15:08.049Z,99869.75
2023-03-26T23:17:37.608Z,99878.44
2023-03-26T23:20:12.600Z,99884.75
2023-03-26T23:22:39.243Z,99877.06
2023-03-26T23:25:10.106Z,99881.56
2023-03-26T23:27:37.191Z,99876.84
2023-03-26T23:30:05.266Z,99889.28
2023-03-26T23:32:31.945Z,99892.72
2023-03-26T23:34:59.703Z,99898.00
2023-03-26T23:37:26.778Z,99902.19
2023-03-26T23:39:53.705Z,99903.69
2023-03-26T23:42:28.918Z,99906.78
2023-03-26T23:44:57.038Z,99912.22
2023-03-26T23:47:23.923Z,99915.06
2023-03-26T23:49:50.907Z,99922.84
2023-03-26T23:52:17.572Z,99926.13
2023-03-26T23:54:45.168Z,99930.63
2023-03-26T23:57:11.902Z,99940.88
2023-03-26T23:59:41.447Z,99945.97
